createdAt,value
2019-02-11T00:01:52.265Z,99989.41
2019-02-11T00:04:18.246Z,100001.88
2019-02-11T00:06:44.262Z,99998.42
2019-02-11T00:09:10.241Z,100002.50
2019-02-11T00:11:36.270Z,100011.39
2019-02-11T00:14:02.297Z,100020.92
2019-02-11T00:16:28.293Z,100024.18
2019-02-11T00:18:54.276Z,100032.06
2019-02-11T00:21:20.302Z,100039.95
2019-02-11T00:23:46.287Z,100037.69
2019-02-11T00:26:12.438Z,100043.58
2019-02-11T00:28:38.494Z,100044.89
2019-02-11T00:31:04.501Z,100056.73
2019-02-11T00:33:30.481Z,100059.69
2019-02-11T00:35:56.483Z,100060.48
2019-02-11T00:38:22.457Z,100070.16
2019-02-11T00:40:48.453Z,100075.08
2019-02-11T00:43:19.118Z,100089.05
2019-02-11T00:45:42.177Z,100097.25
2019-02-11T00:48:08.219Z,100103.69
2019-02-11T00:50:34.220Z,100112.72
2019-02-11T00:53:00.221Z,100108.78
2019-02-11T00:55:26.303Z,100120.11
2019-02-11T00:57:52.312Z,100136.75
2019-02-11T01:00:18.307Z,100142.77
2019-02-11T01:02:44.311Z,100149.70
2019-02-11T01:05:10.288Z,100156.28
2019-02-11T01:07:36.289Z,100169.70
2019-02-11T01:10:02.290Z,100171.38
2019-02-11T01:12:28.302Z,100183.04
2019-02-11T01:14:54.285Z,100181.39
2019-02-11T01:17:20.272Z,100189.78
2019-02-11T01:19:46.258Z,100188.77
2019-02-11T01:22:12.248Z,100198.16
2019-02-11T01:24:38.258Z,100214.40
2019-02-11T01:27:04.262Z,100209.30
2019-02-11T01:29:30.241Z,100217.33
2019-02-11T01:31:56.366Z,100215.06
2019-02-11T01:34:22.336Z,100222.09
2019-02-11T01:36:48.384Z,100225.58
2019-02-11T01:39:14.448Z,100222.95
2019-02-11T01:41:40.425Z,100229.52
2019-02-11T01:44:06.456Z,100234.09
2019-02-11T01:46:32.432Z,100226.20
2019-02-11T01:48:58.436Z,100235.54
2019-02-11T01:51:24.463Z,100244.25
2019-02-11T01:53:50.484Z,100246.87
2019-02-11T01:56:16.482Z,100246.55
2019-02-11T01:58:42.594Z,100251.45
2019-02-11T02:01:08.709Z,100256.70
2019-02-11T02:03:34.684Z,100262.81
2019-02-11T02:06:00.695Z,100274.78
2019-02-11T02:08:26.766Z,100286.12
2019-02-11T02:10:52.788Z,100292.69
2019-02-11T02:13:18.766Z,100293.19
2019-02-11T02:15:44.806Z,100299.43
2019-02-11T02:18:10.857Z,100311.27
2019-02-11T02:20:36.835Z,100314.84
2019-02-11T02:23:02.859Z,100312.08
2019-02-11T02:25:28.854Z,100318.30
2019-02-11T02:27:54.832Z,100332.63
2019-02-11T02:30:20.842Z,100319.34
2019-02-11T02:32:46.812Z,100325.30
2019-02-11T02:35:12.834Z,100323.20
2019-02-11T02:37:38.811Z,100323.89
2019-02-11T02:40:04.839Z,100326.85
2019-02-11T02:42:30.823Z,100327.22
2019-02-11T02:44:56.888Z,100339.25
2019-02-11T02:47:22.867Z,100340.41
2019-02-11T02:49:48.861Z,100341.25
2019-02-11T02:52:14.833Z,100347.17
2019-02-11T02:54:40.844Z,100344.41
2019-02-11T02:57:06.870Z,100350.50
2019-02-11T02:59:32.842Z,100355.63
2019-02-11T03:01:58.925Z,100357.27
2019-02-11T03:04:24.930Z,100363.36
2019-02-11T03:06:50.952Z,100361.42
2019-02-11T03:09:16.941Z,100370.50
2019-02-11T03:11:42.909Z,100379.70
2019-02-11T03:14:08.898Z,100375.13
2019-02-11T03:16:34.886Z,100383.84
2019-02-11T03:19:00.901Z,100392.43
2019-02-11T03:21:26.880Z,100402.95
2019-02-11T03:23:52.860Z,100405.91
2019-02-11T03:26:18.846Z,100402.80
2019-02-11T03:28:44.828Z,100397.89
2019-02-11T03:31:10.813Z,100413.05
2019-02-11T03:33:36.868Z,100415.69
2019-02-11T03:36:02.956Z,100415.20
2019-02-11T03:38:29.020Z,100420.33
2019-02-11T03:40:55.004Z,100432.50
2019-02-11T03:43:20.976Z,100432.83
2019-02-11T03:45:47.001Z,100435.45
2019-02-11T03:48:12.981Z,100441.42
2019-02-11T03:50:38.961Z,100446.67
2019-02-11T03:53:04.951Z,100447.04
2019-02-11T03:55:30.930Z,100450.50
2019-02-11T03:57:56.922Z,100454.28
2019-02-11T04:00:22.920Z,100468.63
2019-02-11T04:02:49.041Z,100470.77
2019-02-11T04:05:15.026Z,100476.84
2019-02-11T04:07:41.037Z,100481.48
2019-02-11T04:10:07.030Z,100484.98
2019-02-11T04:12:33.002Z,100482.34
2019-02-11T04:14:58.999Z,100496.66
2019-02-11T04:17:24.996Z,100499.78
2019-02-11T04:19:51.016Z,100505.87
2019-02-11T04:22:17.040Z,100507.19
2019-02-11T04:24:43.037Z,100514.59
2019-02-11T04:27:09.043Z,100518.20
2019-02-11T04:29:35.126Z,100524.66
2019-02-11T04:32:01.116Z,100529.55
2019-02-11T04:34:27.128Z,100542.22
2019-02-11T04:36:53.118Z,100536.95
2019-02-11T04:39:19.104Z,100543.08
2019-02-11T04:41:45.107Z,100546.17
2019-02-11T04:44:11.103Z,100545.71
2019-02-11T04:46:37.090Z,100552.13
2019-02-11T04:49:03.074Z,100553.94
2019-02-11T04:51:29.077Z,100562.66
2019-02-11T04:53:55.114Z,100572.36
2019-02-11T04:56:21.129Z,100574.50
2019-02-11T04:58:47.112Z,100585.39
2019-02-11T05:01:13.092Z,100591.97
2019-02-11T05:03:39.087Z,100596.25
2019-02-11T05:06:05.084Z,100605.80
2019-02-11T05:08:31.115Z,100608.09
2019-02-11T05:10:57.107Z,100615.66
2019-02-11T05:13:23.106Z,100613.84
2019-02-11T05:15:49.194Z,100624.71
2019-02-11T05:18:17.010Z,100627.50
2019-02-11T05:20:43.101Z,100635.40
2019-02-11T05:23:09.172Z,100632.77
2019-02-11T05:25:35.167Z,100643.13
2019-02-11T05:28:01.150Z,100634.91
2019-02-11T05:30:27.159Z,100635.73
2019-02-11T05:32:53.172Z,100644.61
2019-02-11T05:35:19.195Z,100648.40
2019-02-11T05:37:45.189Z,100647.08
2019-02-11T05:40:11.212Z,100649.72
2019-02-11T05:42:37.268Z,100654.48
2019-02-11T05:45:03.244Z,100646.59
2019-02-11T05:47:29.317Z,100654.85
2019-02-11T05:49:55.306Z,100655.19
2019-02-11T05:52:21.295Z,100656.17
2019-02-11T05:54:47.283Z,100662.26
2019-02-11T05:57:13.321Z,100667.52
2019-02-11T05:59:39.300Z,100675.42
2019-02-11T06:02:05.290Z,100682.00
2019-02-11T06:04:31.363Z,100687.27
2019-02-11T06:06:57.361Z,100693.72
2019-02-11T06:09:23.455Z,100699.47
2019-02-11T06:11:49.522Z,100698.98
2019-02-11T06:14:15.534Z,100711.78
2019-02-11T06:16:41.639Z,100719.06
2019-02-11T06:19:07.646Z,100719.67
2019-02-11T06:21:33.657Z,100724.11
2019-02-11T06:23:59.633Z,100731.06
2019-02-11T06:26:25.636Z,100737.48
2019-02-11T06:28:51.690Z,100749.33
2019-02-11T06:31:17.728Z,100753.77
2019-02-11T06:33:43.692Z,100757.72
2019-02-11T06:36:12.236Z,100760.35
2019-02-11T06:38:37.404Z,100767.27
2019-02-11T06:41:03.441Z,100777.34
2019-02-11T06:43:29.440Z,100784.38
2019-02-11T06:45:55.439Z,100793.59
2019-02-11T06:48:21.453Z,100800.05
2019-02-11T06:50:47.508Z,100805.80
2019-02-11T06:53:13.514Z,100814.64
2019-02-11T06:55:39.554Z,100823.41
2019-02-11T06:58:05.632Z,100832.95
2019-02-11T07:00:31.671Z,100845.29
2019-02-11T07:02:57.656Z,100848.75
2019-02-11T07:05:23.635Z,100852.36
2019-02-11T07:07:49.648Z,100864.05
2019-02-11T07:10:15.706Z,100862.73
2019-02-11T07:12:41.735Z,100872.44
2019-02-11T07:15:07.742Z,100875.90
2019-02-11T07:17:33.729Z,100884.28
2019-02-11T07:19:59.745Z,100881.66
2019-02-11T07:22:25.734Z,100886.43
2019-02-11T07:24:51.831Z,100890.38
2019-02-11T07:27:17.840Z,100903.42
2019-02-11T07:29:43.863Z,100905.56
2019-02-11T07:32:09.843Z,100907.70
2019-02-11T07:34:35.932Z,100916.58
2019-02-11T07:37:01.955Z,100918.84
2019-02-11T07:39:28.028Z,100927.45
2019-02-11T07:41:55.042Z,100933.70
2019-02-11T07:44:21.069Z,100949.98
2019-02-11T07:46:47.062Z,100956.90
2019-02-11T07:49:13.133Z,100959.88
2019-02-11T07:51:42.431Z,100962.11
2019-02-11T07:54:06.853Z,100962.44
2019-02-11T07:56:32.856Z,100968.74
2019-02-11T07:58:58.858Z,100969.50
2019-02-11T08:01:24.838Z,100971.77
2019-02-11T08:03:50.830Z,100978.35
2019-02-11T08:06:16.845Z,100980.98
2019-02-11T08:08:42.840Z,100981.84
2019-02-11T08:11:08.822Z,100987.56
2019-02-11T08:13:34.832Z,100992.83
2019-02-11T08:16:00.858Z,101005.05
2019-02-11T08:18:26.904Z,101009.00
2019-02-11T08:20:52.884Z,101006.86
2019-02-11T08:23:18.878Z,101009.95
2019-02-11T08:25:44.856Z,101016.91
2019-02-11T08:28:19.206Z,101019.66
2019-02-11T08:30:38.586Z,101017.95
2019-02-11T08:33:04.575Z,101028.81
2019-02-11T08:35:30.632Z,101024.72
2019-02-11T08:37:56.799Z,101041.69
2019-02-11T08:40:22.850Z,101047.11
2019-02-11T08:42:48.916Z,101054.03
2019-02-11T08:45:14.907Z,101055.72
2019-02-11T08:47:41.013Z,101064.45
2019-02-11T08:50:07.023Z,101071.74
2019-02-11T08:52:33.085Z,101076.64
2019-02-11T08:54:59.171Z,101084.77
2019-02-11T08:57:25.187Z,101078.41
2019-02-11T08:59:51.154Z,101087.99
2019-02-11T09:02:17.272Z,101090.14
2019-02-11T09:04:43.283Z,101089.87
2019-02-11T09:07:09.275Z,101096.83
2019-02-11T09:09:35.277Z,101109.51
2019-02-11T09:12:01.293Z,101112.86
2019-02-11T09:14:27.317Z,101112.59
2019-02-11T09:16:53.279Z,101114.17
2019-02-11T09:19:19.282Z,101119.66
2019-02-11T09:21:45.281Z,101131.38
2019-02-11T09:24:11.288Z,101122.25
2019-02-11T09:26:37.289Z,101133.11
2019-02-11T09:29:03.286Z,101138.00
2019-02-11T09:31:29.284Z,101138.67
2019-02-11T09:33:55.331Z,101141.08
2019-02-11T09:36:21.340Z,101160.30
2019-02-11T09:38:47.324Z,101162.94
2019-02-11T09:41:13.309Z,101162.33
2019-02-11T09:43:39.301Z,101165.80
2019-02-11T09:46:05.297Z,101168.31
2019-02-11T09:48:31.325Z,101180.88
2019-02-11T09:50:57.355Z,101191.66
2019-02-11T09:53:23.415Z,101192.36
2019-02-11T09:55:49.477Z,101196.54
2019-02-11T09:58:15.446Z,101203.47
2019-02-11T10:00:41.492Z,101207.08
2019-02-11T10:03:07.572Z,101199.52
2019-02-11T10:05:33.621Z,101201.54
2019-02-11T10:07:59.630Z,101208.95
2019-02-11T10:10:25.656Z,101208.47
2019-02-11T10:12:51.633Z,101214.11
2019-02-11T10:15:17.614Z,101217.58
2019-02-11T10:17:43.624Z,101224.88
2019-02-11T10:20:09.679Z,101231.10
2019-02-11T10:22:35.692Z,101241.88
2019-02-11T10:25:01.701Z,101236.26
2019-02-11T10:27:27.687Z,101246.54
2019-02-11T10:29:53.682Z,101244.39
2019-02-11T10:32:19.720Z,101257.23
2019-02-11T10:34:45.716Z,101260.98
2019-02-11T10:37:11.707Z,101263.55
2019-02-11T10:39:37.698Z,101271.66
2019-02-11T10:42:03.701Z,101273.20
2019-02-11T10:44:29.750Z,101278.59
2019-02-11T10:46:55.739Z,101288.59
2019-02-11T10:49:21.743Z,101281.22
2019-02-11T10:51:47.746Z,101292.94
2019-02-11T10:54:13.743Z,101293.42
2019-02-11T10:56:39.721Z,101294.74
2019-02-11T10:59:05.698Z,101296.89
2019-02-11T11:01:31.682Z,101289.61
2019-02-11T11:03:57.657Z,101298.13
2019-02-11T11:06:23.670Z,101293.46
2019-02-11T11:08:49.657Z,101291.43
2019-02-11T11:11:15.651Z,101295.50
2019-02-11T11:13:41.655Z,101298.13
2019-02-11T11:16:07.649Z,101300.42
2019-02-11T11:18:36.675Z,101307.98
2019-02-11T11:21:02.683Z,101307.62
2019-02-11T11:23:28.670Z,101316.84
2019-02-11T11:25:54.704Z,101315.67
2019-02-11T11:28:20.705Z,101313.48
2019-02-11T11:30:46.699Z,101323.20
2019-02-11T11:33:12.703Z,101328.59
2019-02-11T11:35:38.679Z,101327.27
2019-02-11T11:38:04.692Z,101331.71
2019-02-11T11:40:30.686Z,101327.91
2019-02-11T11:42:56.706Z,101335.81
2019-02-11T11:45:22.681Z,101332.95
2019-02-11T11:47:48.683Z,101338.67
2019-02-11T11:50:14.690Z,101335.70
2019-02-11T11:52:40.663Z,101338.33
2019-02-11T11:55:06.683Z,101337.98
2019-02-11T11:57:32.675Z,101344.69
2019-02-11T11:59:58.675Z,101352.70
2019-02-11T12:02:24.727Z,101361.92
2019-02-11T12:04:50.772Z,101357.62
2019-02-11T12:07:16.792Z,101365.16
2019-02-11T12:09:43.887Z,101370.58
2019-02-11T12:12:13.005Z,101373.32
2019-02-11T12:14:37.896Z,101373.32
2019-02-11T12:17:03.990Z,101380.28
2019-02-11T12:19:30.162Z,101387.81
2019-02-11T12:21:56.200Z,101397.17
2019-02-11T12:24:22.225Z,101406.25
2019-02-11T12:26:48.281Z,101419.57
2019-02-11T12:29:14.298Z,101412.61
2019-02-11T12:31:40.501Z,101411.78
2019-02-11T12:34:06.568Z,101417.53
2019-02-11T12:36:32.553Z,101426.61
2019-02-11T12:39:00.131Z,101435.49
2019-02-11T12:41:26.250Z,101439.09
2019-02-11T12:43:52.384Z,101442.67
2019-02-11T12:46:18.386Z,101438.00
2019-02-11T12:48:44.393Z,101442.78
2019-02-11T12:51:10.363Z,101449.51
2019-02-11T12:53:36.419Z,101452.98
2019-02-11T12:56:03.183Z,101463.63
2019-02-11T12:58:29.370Z,101464.94
2019-02-11T13:00:55.357Z,101463.63
2019-02-11T13:03:21.389Z,101471.08
2019-02-11T13:05:47.800Z,101467.72
2019-02-11T13:08:13.858Z,101473.81
2019-02-11T13:10:39.941Z,101476.80
2019-02-11T13:13:07.002Z,101483.03
2019-02-11T13:15:57.541Z,101479.91
2019-02-11T13:18:01.364Z,101484.84
2019-02-11T13:20:28.157Z,101482.44
2019-02-11T13:22:54.273Z,101490.34
2019-02-11T13:25:20.326Z,101499.42
2019-02-11T13:27:46.311Z,101499.20
2019-02-11T13:30:12.338Z,101509.52
2019-02-11T13:32:38.391Z,101523.64
2019-02-11T13:35:04.470Z,101524.23
2019-02-11T13:37:30.457Z,101533.95
2019-02-11T13:39:56.473Z,101536.20
2019-02-11T13:42:22.573Z,101546.39
2019-02-11T13:44:48.639Z,101558.84
2019-02-11T13:47:14.760Z,101566.50
2019-02-11T13:49:40.793Z,101581.23
2019-02-11T13:52:06.950Z,101585.80
2019-02-11T13:54:33.020Z,101594.89
2019-02-11T13:56:59.025Z,101593.70
2019-02-11T13:59:25.034Z,101593.84
2019-02-11T14:01:51.031Z,101596.23
2019-02-11T14:04:17.045Z,101596.47
2019-02-11T14:06:43.075Z,101594.08
2019-02-11T14:09:09.151Z,101597.80
2019-02-11T14:11:35.202Z,101599.60
2019-02-11T14:14:03.612Z,101612.87
2019-02-11T14:16:28.901Z,101610.00
2019-02-11T14:18:54.927Z,101614.58
2019-02-11T14:21:20.965Z,101615.40
2019-02-11T14:23:47.042Z,101626.31
2019-02-11T14:26:13.154Z,101632.53
2019-02-11T14:28:39.209Z,101639.84
2019-02-11T14:31:05.213Z,101651.22
2019-02-11T14:33:31.315Z,101656.74
2019-02-11T14:35:57.483Z,101666.94
2019-02-11T14:38:23.484Z,101655.66
2019-02-11T14:40:49.528Z,101658.91
2019-02-11T14:43:15.577Z,101670.41
2019-02-11T14:45:41.610Z,101675.67
2019-02-11T14:48:07.731Z,101679.87
2019-02-11T14:50:33.819Z,101671.74
2019-02-11T14:52:59.872Z,101670.29
2019-02-11T14:55:25.873Z,101678.34
2019-02-11T14:57:51.898Z,101685.28
2019-02-11T15:00:17.917Z,101686.57
2019-02-11T15:02:43.913Z,101693.06
2019-02-11T15:05:09.942Z,101694.64
2019-02-11T15:07:35.943Z,101705.91
2019-02-11T15:10:01.950Z,101702.43
2019-02-11T15:12:28.136Z,101700.98
2019-02-11T15:14:54.108Z,101706.88
2019-02-11T15:17:20.102Z,101704.37
2019-02-11T15:19:46.101Z,101709.86
2019-02-11T15:22:12.099Z,101711.69
2019-02-11T15:24:39.200Z,101712.78
2019-02-11T15:27:05.188Z,101711.34
2019-02-11T15:29:33.313Z,101713.37
2019-02-11T15:31:59.299Z,101717.20
2019-02-11T15:34:25.276Z,101724.98
2019-02-11T15:36:51.265Z,101726.88
2019-02-11T15:39:17.246Z,101737.45
2019-02-11T15:41:43.383Z,101742.70
2019-02-11T15:44:09.369Z,101748.84
2019-02-11T15:46:35.356Z,101756.27
2019-02-11T15:49:01.355Z,101766.05
2019-02-11T15:51:27.459Z,101777.03
2019-02-11T15:53:53.447Z,101773.13
2019-02-11T15:56:19.454Z,101782.98
2019-02-11T15:58:45.439Z,101781.91
2019-02-11T16:01:11.424Z,101791.88
2019-02-11T16:03:37.405Z,101799.39
2019-02-11T16:06:10.233Z,101805.39
2019-02-11T16:08:31.131Z,101807.41
2019-02-11T16:11:01.491Z,101815.45
2019-02-11T16:13:24.860Z,101826.34
2019-02-11T16:15:50.869Z,101833.02
2019-02-11T16:18:16.883Z,101842.86
2019-02-11T16:20:42.907Z,101845.64
2019-02-11T16:23:08.991Z,101858.47
2019-02-11T16:25:35.035Z,101867.06
2019-02-11T16:28:01.099Z,101881.07
2019-02-11T16:30:27.112Z,101882.91
2019-02-11T16:32:53.132Z,101885.77
2019-02-11T16:35:19.202Z,101893.19
2019-02-11T16:37:45.265Z,101894.66
2019-02-11T16:40:11.280Z,101905.06
2019-02-11T16:42:37.262Z,101916.09
2019-02-11T16:45:03.275Z,101927.73
2019-02-11T16:47:29.274Z,101928.36
2019-02-11T16:49:55.274Z,101946.01
2019-02-11T16:52:21.282Z,101953.81
2019-02-11T16:54:47.337Z,101957.29
2019-02-11T16:57:15.165Z,101960.92
2019-02-11T16:59:41.195Z,101965.69
2019-02-11T17:02:07.215Z,101974.61
2019-02-11T17:04:33.206Z,101979.96
2019-02-11T17:06:59.256Z,101993.45
2019-02-11T17:09:25.334Z,102001.80
2019-02-11T17:11:51.422Z,102008.39
2019-02-11T17:14:17.580Z,102019.06
2019-02-11T17:16:43.579Z,102020.26
2019-02-11T17:19:09.865Z,102029.11
2019-02-11T17:21:36.072Z,102028.50
2019-02-11T17:24:02.140Z,102035.32
2019-02-11T17:26:28.200Z,102040.34
2019-02-11T17:28:54.235Z,102053.38
2019-02-11T17:31:20.210Z,102052.41
2019-02-11T17:33:46.197Z,102057.75
2019-02-11T17:36:12.211Z,102068.34
2019-02-11T17:38:38.259Z,102073.00
2019-02-11T17:41:04.264Z,102063.11
2019-02-11T17:43:30.243Z,102073.59
2019-02-11T17:45:57.030Z,102080.54
2019-02-11T17:48:23.263Z,102087.27
2019-02-11T17:50:49.272Z,102088.33
2019-02-11T17:53:15.348Z,102087.59
2019-02-11T17:55:41.338Z,102089.26
2019-02-11T17:58:07.342Z,102091.06
2019-02-11T18:00:33.407Z,102094.02
2019-02-11T18:02:59.416Z,102096.43
2019-02-11T18:05:25.470Z,102110.81
2019-02-11T18:07:51.464Z,102109.33
2019-02-11T18:10:19.861Z,102108.59
2019-02-11T18:12:45.954Z,102117.84
2019-02-11T18:15:12.018Z,102120.38
2019-02-11T18:17:37.999Z,102135.45
2019-02-11T18:20:03.998Z,102136.77
2019-02-11T18:22:30.080Z,102148.52
2019-02-11T18:24:56.147Z,102149.64
2019-02-11T18:27:22.209Z,102152.16
2019-02-11T18:29:48.378Z,102160.97
2019-02-11T18:32:14.383Z,102151.58
2019-02-11T18:34:40.369Z,102154.79
2019-02-11T18:37:06.381Z,102160.84
2019-02-11T18:39:32.405Z,102160.71
2019-02-11T18:41:58.414Z,102158.42
2019-02-11T18:44:24.455Z,102163.34
2019-02-11T18:46:50.523Z,102165.50
2019-02-11T18:49:16.509Z,102169.10
2019-02-11T18:51:42.513Z,102172.93
2019-02-11T18:54:08.529Z,102188.01
2019-02-11T18:56:34.508Z,102196.40
2019-02-11T18:59:00.537Z,102193.02
2019-02-11T19:01:26.632Z,102209.54
2019-02-11T19:03:52.640Z,102213.23
2019-02-11T19:06:18.629Z,102211.70
2019-02-11T19:08:44.677Z,102218.45
2019-02-11T19:11:10.787Z,102228.09
2019-02-11T19:13:36.803Z,102230.80
2019-02-11T19:16:02.880Z,102237.27
2019-02-11T19:18:28.893Z,102244.17
2019-02-11T19:20:54.950Z,102239.38
2019-02-11T19:23:21.202Z,102244.08
2019-02-11T19:25:47.330Z,102235.73
2019-02-11T19:28:13.504Z,102224.44
2019-02-11T19:30:39.611Z,102222.28
2019-02-11T19:33:06.677Z,102218.98
2019-02-11T19:35:33.022Z,102204.27
2019-02-11T19:37:59.054Z,102197.72
2019-02-11T19:40:26.691Z,102207.30
2019-02-11T19:42:53.140Z,102199.78
2019-02-11T19:45:19.455Z,102204.92
2019-02-11T19:47:45.562Z,102215.86
2019-02-11T19:50:11.580Z,102228.30
2019-02-11T19:52:37.624Z,102242.13
2019-02-11T19:55:05.358Z,102238.56
2019-02-11T19:57:31.544Z,102247.31
2019-02-11T19:59:58.120Z,102265.59
2019-02-11T20:02:24.311Z,102280.86
2019-02-11T20:04:50.380Z,102278.14
2019-02-11T20:07:18.602Z,102270.80
2019-02-11T20:09:44.900Z,102266.37
2019-02-11T20:12:11.003Z,102263.94
2019-02-11T20:14:37.351Z,102259.33
2019-02-11T20:17:03.395Z,102257.74
2019-02-11T20:19:29.404Z,102279.30
2019-02-11T20:21:55.419Z,102280.53
2019-02-11T20:24:21.444Z,102281.09
2019-02-11T20:26:47.470Z,102291.28
2019-02-11T20:29:13.866Z,102289.69
2019-02-11T20:31:40.000Z,102289.00
2019-02-11T20:34:06.064Z,102302.45
2019-02-11T20:36:32.073Z,102309.31
2019-02-11T20:38:59.171Z,102305.84
2019-02-11T20:41:25.202Z,102317.16
2019-02-11T20:43:52.198Z,102315.54
2019-02-11T20:46:18.260Z,102319.48
2019-02-11T20:48:44.785Z,102324.37
2019-02-11T20:51:11.486Z,102330.33
2019-02-11T20:53:38.917Z,102341.52
2019-02-11T20:56:04.994Z,102347.34
2019-02-11T20:58:31.333Z,102350.73
2019-02-11T21:00:57.480Z,102355.44
2019-02-11T21:03:23.531Z,102362.03
2019-02-11T21:05:49.601Z,102368.89
2019-02-11T21:08:15.609Z,102373.05
2019-02-11T21:10:43.444Z,102379.16
2019-02-11T21:13:09.553Z,102388.10
2019-02-11T21:15:35.590Z,102387.18
2019-02-11T21:18:01.569Z,102383.88
2019-02-11T21:20:27.576Z,102386.42
2019-02-11T21:22:53.589Z,102380.57
2019-02-11T21:25:19.576Z,102384.16
2019-02-11T21:27:45.574Z,102378.32
2019-02-11T21:30:11.572Z,102388.10
2019-02-11T21:32:37.574Z,102393.85
2019-02-11T21:35:03.575Z,102401.36
2019-02-11T21:37:29.550Z,102398.81
2019-02-11T21:39:55.596Z,102407.17
2019-02-11T21:42:21.669Z,102410.77
2019-02-11T21:44:47.703Z,102417.17
2019-02-11T21:47:13.692Z,102420.00
2019-02-11T21:49:39.669Z,102422.27
2019-02-11T21:52:05.676Z,102422.16
2019-02-11T21:54:31.670Z,102431.86
2019-02-11T21:56:57.828Z,102435.45
2019-02-11T21:59:23.831Z,102433.29
2019-02-11T22:01:49.893Z,102440.16
2019-02-11T22:04:15.896Z,102440.52
2019-02-11T22:06:41.951Z,102447.59
2019-02-11T22:09:07.938Z,102453.02
2019-02-11T22:11:34.058Z,102458.30
2019-02-11T22:14:00.130Z,102456.97
2019-02-11T22:16:26.155Z,102453.11
2019-02-11T22:18:52.223Z,102454.91
2019-02-11T22:21:18.208Z,102456.39
2019-02-11T22:23:44.228Z,102449.80
2019-02-11T22:26:10.202Z,102451.98
2019-02-11T22:28:36.199Z,102456.02
2019-02-11T22:31:02.218Z,102460.93
2019-02-11T22:33:28.271Z,102465.80
2019-02-11T22:35:54.290Z,102471.55
2019-02-11T22:38:20.271Z,102479.81
2019-02-11T22:40:46.312Z,102472.58
2019-02-11T22:43:12.386Z,102472.22
2019-02-11T22:45:38.456Z,102473.82
2019-02-11T22:48:05.551Z,102468.72
2019-02-11T22:50:31.564Z,102465.63
2019-02-11T22:52:57.573Z,102463.17
2019-02-11T22:55:23.649Z,102465.36
2019-02-11T22:57:49.962Z,102468.27
2019-02-11T23:00:15.982Z,102468.27
2019-02-11T23:02:41.979Z,102469.20
2019-02-11T23:05:07.989Z,102467.99
2019-02-11T23:07:34.002Z,102464.48
2019-02-11T23:10:00.004Z,102469.39
2019-02-11T23:12:25.985Z,102477.37
2019-02-11T23:14:51.973Z,102472.11
2019-02-11T23:17:17.975Z,102474.45
2019-02-11T23:19:43.976Z,102488.58
2019-02-11T23:22:09.950Z,102491.21
2019-02-11T23:24:35.918Z,102483.95
2019-02-11T23:27:01.928Z,102497.87
2019-02-11T23:29:28.997Z,102506.05
2019-02-11T23:31:55.077Z,102514.43
2019-02-11T23:34:21.072Z,102517.14
2019-02-11T23:36:47.047Z,102520.25
2019-02-11T23:39:13.029Z,102529.58
2019-02-11T23:41:39.020Z,102527.31
2019-02-11T23:44:05.036Z,102530.90
2019-02-11T23:46:31.014Z,102524.87
2019-02-11T23:48:56.985Z,102528.27
2019-02-11T23:51:22.976Z,102516.78
2019-02-11T23:53:49.063Z,102512.47
2019-02-11T23:56:15.053Z,102514.22
2019-02-11T23:58:41.071Z,102514.22
